FQNP

Details ICAO FQNP (APL)
Name NAMPULA
Region Mozambique
Timezone Africa/Maputo (UTC+2.0)
Plans Departing 13
Arriving 19
Stats Elevation 1,444 ft / 440 m (AMSL)
Location -15.106284° 39.287263°
Runways 2
Magnetic Variation 8.282° W
Sunrise 2018-05-26 03:41:31 UTC / 2018-05-26 05:41:31 Local
Sunset 2018-05-26 15:01:08 UTC / 2018-05-26 17:01:08 Local
Advertisement - Login to hide

Runways

ID Width Length Bearing (true) Bearing (mag) Surface Threshold Offset Overrun Length
05 148 ft / 45 m 6,536 ft / 1,992 m 46.15° 54.43° Asphalt 0 ft / 0 m 0 ft / 0 m
13 148 ft / 45 m 5,137 ft / 1,566 m 119.33° 127.61° Gravel 0 ft / 0 m 0 ft / 0 m
23 148 ft / 45 m 6,536 ft / 1,992 m 226.15° 234.43° Asphalt 0 ft / 0 m 0 ft / 0 m
31 148 ft / 45 m 5,137 ft / 1,566 m 299.32° 307.60° Gravel 0 ft / 0 m 0 ft / 0 m

Map

Weather


0- 5 10 15 20 25 30 35+ Temperature / ° C

Clouds and Precipitation
Forecast for 2018-05-26 06:00 UTC. Updated an hour ago

Ground ~20,000 ft ~40,000 ft Winds

METAR

FQNP 260600Z 12004KT 9999 FEW010 BKN020 24/22 Q1019

TAF

TAF FQNP 252200Z 2600/2704 VRB02KT CAVOK BECMG 2606/2608 03006KT 9999 SCT020 BECMG 2612/2614 09010KT BECMG 2618/2620 17006KT TN20/2603Z TX30/2613Z

Frequencies

Tower 118.10 MHz TWR
Approach 128.80 MHz APP
Warning: Do not use this data for real-world aviation or navigation. No guarantee of current accuracy is given.